createdAt,value
2018-06-28T00:03:55.289Z,5.33
2018-06-28T00:07:58.141Z,7.27
2018-06-28T00:12:01.013Z,6.60
2018-06-28T00:16:03.944Z,4.03
2018-06-28T00:20:06.785Z,7.83
2018-06-28T00:24:09.587Z,4.50
2018-06-28T00:28:12.444Z,8.53
2018-06-28T00:32:15.296Z,10.60
2018-06-28T00:36:18.164Z,7.93
2018-06-28T00:40:21.049Z,5.73
2018-06-28T00:44:23.901Z,9.97
2018-06-28T00:48:26.734Z,7.17
2018-06-28T00:52:29.577Z,6.17
2018-06-28T00:56:32.435Z,6.50
2018-06-28T01:00:35.261Z,5.47
2018-06-28T01:04:38.160Z,8.10
2018-06-28T01:08:41.093Z,10.13
2018-06-28T01:12:44.022Z,8.00
2018-06-28T01:16:46.866Z,7.00
2018-06-28T01:20:49.739Z,8.07
2018-06-28T01:24:52.621Z,5.70
2018-06-28T01:28:55.468Z,9.00
2018-06-28T01:32:58.316Z,8.73
2018-06-28T01:37:01.156Z,8.93
2018-06-28T01:41:03.971Z,11.10
2018-06-28T01:45:06.735Z,10.43
2018-06-28T01:49:09.511Z,8.10
2018-06-28T01:53:12.282Z,10.97
2018-06-28T01:57:15.108Z,13.13
2018-06-28T02:01:17.898Z,7.83
2018-06-28T02:05:20.700Z,9.10
2018-06-28T02:09:23.543Z,11.93
2018-06-28T02:13:26.401Z,9.87
2018-06-28T02:17:29.180Z,7.47
2018-06-28T02:21:31.981Z,7.40
2018-06-28T02:25:34.937Z,7.77
2018-06-28T02:29:37.774Z,8.77
2018-06-28T02:33:40.564Z,11.53
2018-06-28T02:37:43.406Z,11.93
2018-06-28T02:41:46.252Z,10.40
2018-06-28T02:45:49.068Z,11.40
2018-06-28T02:49:51.881Z,9.37
2018-06-28T02:53:54.691Z,10.20
2018-06-28T02:57:57.549Z,11.70
2018-06-28T03:02:00.333Z,12.93
2018-06-28T03:06:03.180Z,11.80
2018-06-28T03:10:06.053Z,13.83
2018-06-28T03:14:09.009Z,9.57
2018-06-28T03:18:11.913Z,9.83
2018-06-28T03:22:15.065Z,9.50
2018-06-28T03:26:18.067Z,15.37
2018-06-28T03:30:20.869Z,10.70
2018-06-28T03:34:23.725Z,11.40
2018-06-28T03:38:26.528Z,11.23
2018-06-28T03:42:29.365Z,13.50
2018-06-28T03:46:32.181Z,11.57
2018-06-28T03:50:34.967Z,10.37
2018-06-28T03:54:37.789Z,14.00
2018-06-28T03:58:40.581Z,13.87
2018-06-28T04:02:43.377Z,12.93
2018-06-28T04:06:46.189Z,11.60
2018-06-28T04:10:49.029Z,11.53
2018-06-28T04:14:51.949Z,12.97
2018-06-28T04:18:54.751Z,15.63
2018-06-28T04:22:57.971Z,15.33
2018-06-28T04:27:00.822Z,16.40
2018-06-28T04:31:04.111Z,12.80
2018-06-28T04:35:06.965Z,12.77
2018-06-28T04:39:11.796Z,13.57
2018-06-28T04:43:15.254Z,17.20
2018-06-28T04:47:18.076Z,15.93
2018-06-28T04:51:20.877Z,16.03
2018-06-28T04:55:23.745Z,16.67
2018-06-28T04:59:26.546Z,13.90
2018-06-28T05:03:29.429Z,15.47
2018-06-28T05:07:32.258Z,13.53
2018-06-28T05:11:35.160Z,13.23
2018-06-28T05:15:38.029Z,14.97
2018-06-28T05:19:40.840Z,10.80
2018-06-28T05:23:43.704Z,12.53
2018-06-28T05:27:46.645Z,12.37
2018-06-28T05:31:49.589Z,14.43
2018-06-28T05:35:52.649Z,14.87
2018-06-28T05:39:56.100Z,12.57
2018-06-28T05:43:59.005Z,11.70
2018-06-28T05:48:01.969Z,11.17
2018-06-28T05:52:04.916Z,12.73
2018-06-28T05:56:07.779Z,15.17
2018-06-28T06:00:10.692Z,10.17
2018-06-28T06:04:13.619Z,8.47
2018-06-28T06:08:16.489Z,10.53
2018-06-28T06:12:19.313Z,15.03
2018-06-28T06:16:22.138Z,11.83
2018-06-28T06:20:24.978Z,10.73
2018-06-28T06:24:27.864Z,11.97
2018-06-28T06:28:30.641Z,10.83
2018-06-28T06:32:33.527Z,6.77
2018-06-28T06:36:36.407Z,8.07
2018-06-28T06:40:39.249Z,12.83
2018-06-28T06:44:42.141Z,10.27
2018-06-28T06:48:44.996Z,8.77
2018-06-28T06:52:47.901Z,8.40
2018-06-28T06:56:50.695Z,8.00
2018-06-28T07:00:53.563Z,7.33
2018-06-28T07:04:56.367Z,7.80
2018-06-28T07:08:59.239Z,8.77
2018-06-28T07:13:02.128Z,6.43
2018-06-28T07:17:04.973Z,6.57
2018-06-28T07:21:07.993Z,8.27
2018-06-28T07:25:10.962Z,5.33
2018-06-28T07:29:13.750Z,6.27
2018-06-28T07:33:16.542Z,10.90
2018-06-28T07:37:19.340Z,5.90
2018-06-28T07:41:22.109Z,4.77
2018-06-28T07:45:24.910Z,5.33
2018-06-28T07:49:27.713Z,4.70
2018-06-28T07:53:30.520Z,6.57
2018-06-28T07:57:33.509Z,5.97
2018-06-28T08:01:36.389Z,5.10
2018-06-28T08:05:39.258Z,7.47
2018-06-28T08:09:42.129Z,4.37
2018-06-28T08:13:44.901Z,8.17
2018-06-28T08:17:47.737Z,10.67
2018-06-28T08:21:50.583Z,7.77
2018-06-28T08:25:53.434Z,3.30
2018-06-28T08:29:56.313Z,8.53
2018-06-28T08:33:59.102Z,5.63
2018-06-28T08:38:01.870Z,7.67
2018-06-28T08:42:04.747Z,4.50
2018-06-28T08:46:07.619Z,7.60
2018-06-28T08:50:10.475Z,3.73
2018-06-28T08:54:13.366Z,5.23
2018-06-28T08:58:16.545Z,5.37
2018-06-28T09:02:19.396Z,2.70
2018-06-28T09:06:22.221Z,5.17
2018-06-28T09:10:25.067Z,9.23
2018-06-28T09:14:27.842Z,8.33
2018-06-28T09:18:30.653Z,2.60
2018-06-28T09:22:33.557Z,1.83
2018-06-28T09:26:36.385Z,2.87
2018-06-28T09:30:39.198Z,4.73
2018-06-28T09:34:41.997Z,2.63
2018-06-28T09:38:44.787Z,3.87
2018-06-28T09:42:47.712Z,5.00
2018-06-28T09:46:50.528Z,3.37
2018-06-28T09:50:53.397Z,2.20
2018-06-28T09:54:56.356Z,2.83
2018-06-28T09:58:59.199Z,13.07
2018-06-28T10:03:02.092Z,3.57
2018-06-28T10:07:05.077Z,5.67
2018-06-28T10:11:07.979Z,4.10
2018-06-28T10:15:10.850Z,2.50
2018-06-28T10:19:13.747Z,2.87
2018-06-28T10:23:16.639Z,10.40
2018-06-28T10:27:19.534Z,6.00
2018-06-28T10:31:22.451Z,6.53
2018-06-28T10:35:25.297Z,2.63
2018-06-28T10:39:28.258Z,3.63
2018-06-28T10:43:31.113Z,2.30
2018-06-28T10:47:34.029Z,4.27
2018-06-28T10:51:36.840Z,5.97
2018-06-28T10:55:39.640Z,3.10
2018-06-28T10:59:42.468Z,3.67
2018-06-28T11:03:45.398Z,1.87
2018-06-28T11:07:48.206Z,2.43
2018-06-28T11:11:51.033Z,2.07
2018-06-28T11:15:53.869Z,2.43
2018-06-28T11:19:56.723Z,2.00
2018-06-28T11:23:59.538Z,1.90
2018-06-28T11:28:02.435Z,2.03
2018-06-28T11:32:05.328Z,2.40
2018-06-28T11:36:08.124Z,2.53
2018-06-28T11:40:10.909Z,3.57
2018-06-28T11:44:13.808Z,3.67
2018-06-28T11:48:16.667Z,2.13
2018-06-28T11:52:19.527Z,3.93
2018-06-28T11:56:22.607Z,3.40
2018-06-28T12:00:25.503Z,6.70
2018-06-28T12:04:29.377Z,5.77
2018-06-28T12:08:32.170Z,2.90
2018-06-28T12:12:35.074Z,6.13
2018-06-28T12:16:37.874Z,3.47
2018-06-28T12:20:42.140Z,6.07
2018-06-28T12:24:45.110Z,2.47
2018-06-28T12:28:47.902Z,2.90
2018-06-28T12:32:50.727Z,2.40
2018-06-28T12:36:53.591Z,2.40
2018-06-28T12:40:56.450Z,4.73
2018-06-28T12:44:59.288Z,2.00
2018-06-28T12:49:02.121Z,5.53
2018-06-28T12:53:08.127Z,2.17
2018-06-28T12:57:10.930Z,2.30
2018-06-28T13:01:13.803Z,5.60
2018-06-28T13:05:16.842Z,3.73
2018-06-28T13:09:19.685Z,2.17
2018-06-28T13:13:22.459Z,2.63
2018-06-28T13:17:25.317Z,2.13
2018-06-28T13:21:28.303Z,2.83
2018-06-28T13:25:31.082Z,3.57
2018-06-28T13:29:34.280Z,4.30
2018-06-28T13:33:37.183Z,3.43
2018-06-28T13:37:39.977Z,3.03
2018-06-28T13:41:43.228Z,2.37
2018-06-28T13:45:45.654Z,4.07
2018-06-28T13:49:48.612Z,2.53
2018-06-28T13:53:51.565Z,3.67
2018-06-28T13:57:54.515Z,3.40
2018-06-28T14:01:57.344Z,2.17
2018-06-28T14:06:00.145Z,2.33
2018-06-28T14:10:03.032Z,2.70
2018-06-28T14:14:06.013Z,4.97
2018-06-28T14:18:08.866Z,6.07
2018-06-28T14:22:11.692Z,6.63
2018-06-28T14:26:14.539Z,2.00
2018-06-28T14:30:18.157Z,3.90
2018-06-28T14:34:21.032Z,2.90
2018-06-28T14:38:23.739Z,2.60
2018-06-28T14:42:26.670Z,5.93
2018-06-28T14:46:29.527Z,2.57
2018-06-28T14:50:32.337Z,2.40
2018-06-28T14:54:35.165Z,4.40
2018-06-28T14:58:38.010Z,4.00
2018-06-28T15:02:41.160Z,3.33
2018-06-28T15:06:43.958Z,2.47
2018-06-28T15:10:46.841Z,3.70
2018-06-28T15:14:49.683Z,3.87
2018-06-28T15:18:52.510Z,3.03
2018-06-28T15:22:55.340Z,3.73
2018-06-28T15:26:58.133Z,1.87
2018-06-28T15:31:00.955Z,2.00
2018-06-28T15:35:03.955Z,4.30
2018-06-28T15:39:08.350Z,1.97
2018-06-28T15:43:11.127Z,1.70
2018-06-28T15:47:13.962Z,1.67
2018-06-28T15:51:16.822Z,3.30
2018-06-28T15:55:19.803Z,2.10
2018-06-28T15:59:22.683Z,6.10
2018-06-28T16:03:25.508Z,1.97
2018-06-28T16:07:28.710Z,2.00
2018-06-28T16:11:31.536Z,2.13
2018-06-28T16:15:34.453Z,1.93
2018-06-28T16:19:37.566Z,2.33
2018-06-28T16:23:40.418Z,4.20
2018-06-28T16:27:43.811Z,2.60
2018-06-28T16:31:47.319Z,1.50
2018-06-28T16:35:50.163Z,5.33
2018-06-28T16:39:53.091Z,1.87
2018-06-28T16:43:55.957Z,2.20
2018-06-28T16:47:58.806Z,2.50
2018-06-28T16:52:01.990Z,5.20
2018-06-28T16:56:04.845Z,3.13
2018-06-28T17:00:07.899Z,3.03
2018-06-28T17:04:10.870Z,4.43
2018-06-28T17:08:13.771Z,4.53
2018-06-28T17:12:16.601Z,3.17
2018-06-28T17:16:19.643Z,3.77
2018-06-28T17:20:22.501Z,4.40
2018-06-28T17:24:25.376Z,7.80
2018-06-28T17:28:28.240Z,1.73
2018-06-28T17:32:31.035Z,2.20
2018-06-28T17:36:34.107Z,3.47
2018-06-28T17:40:37.316Z,5.80
2018-06-28T17:44:40.731Z,1.83
2018-06-28T17:48:44.194Z,2.10
2018-06-28T17:52:47.368Z,3.23
2018-06-28T17:56:50.249Z,2.47
2018-06-28T18:00:53.252Z,4.23
2018-06-28T18:04:56.235Z,3.37
2018-06-28T18:08:59.191Z,3.60
2018-06-28T18:13:02.154Z,3.50
2018-06-28T18:17:05.110Z,6.27
2018-06-28T18:21:08.226Z,2.60
2018-06-28T18:25:11.078Z,6.57
2018-06-28T18:29:13.933Z,3.80
2018-06-28T18:33:16.699Z,2.57
2018-06-28T18:37:19.499Z,2.73
2018-06-28T18:41:22.393Z,1.73
2018-06-28T18:45:25.197Z,3.93
2018-06-28T18:49:28.041Z,3.30
2018-06-28T18:53:31.176Z,2.63
2018-06-28T18:57:34.029Z,3.10
2018-06-28T19:01:36.819Z,2.83
2018-06-28T19:05:39.651Z,2.83
2018-06-28T19:09:48.130Z,1.73
2018-06-28T19:13:56.929Z,2.07
2018-06-28T19:17:59.902Z,3.87
2018-06-28T19:22:08.406Z,3.80
2018-06-28T19:26:11.355Z,5.43
2018-06-28T19:30:19.924Z,2.77
2018-06-28T19:34:22.949Z,3.73
2018-06-28T19:38:30.253Z,1.53
2018-06-28T19:42:38.675Z,2.00
2018-06-28T19:46:41.711Z,2.57
2018-06-28T19:50:50.074Z,2.60
2018-06-28T19:54:52.879Z,3.43
2018-06-28T19:58:55.734Z,1.83
2018-06-28T20:03:04.042Z,5.67
2018-06-28T20:07:06.875Z,2.23
2018-06-28T20:11:09.736Z,1.10
2018-06-28T20:15:18.180Z,3.03
2018-06-28T20:19:27.502Z,2.23
2018-06-28T20:23:30.641Z,4.43
2018-06-28T20:27:39.264Z,2.43
2018-06-28T20:31:47.577Z,2.03
2018-06-28T20:35:50.490Z,1.43
2018-06-28T20:39:53.459Z,3.77
2018-06-28T20:43:56.244Z,6.37
2018-06-28T20:48:00.128Z,3.50
2018-06-28T20:52:03.109Z,3.43
2018-06-28T20:56:06.055Z,3.60
2018-06-28T21:00:09.780Z,2.30
2018-06-28T21:04:12.893Z,4.30
2018-06-28T21:08:15.834Z,3.57
2018-06-28T21:12:18.682Z,4.97
2018-06-28T21:16:21.520Z,2.20
2018-06-28T21:20:24.352Z,2.40
2018-06-28T21:24:27.137Z,6.33
2018-06-28T21:28:30.085Z,3.77
2018-06-28T21:32:32.920Z,4.60
2018-06-28T21:36:35.951Z,1.83
2018-06-28T21:40:38.990Z,1.83
2018-06-28T21:44:41.803Z,3.87
2018-06-28T21:48:44.749Z,3.77
2018-06-28T21:52:47.921Z,4.10
2018-06-28T21:56:50.748Z,3.77
2018-06-28T22:00:53.568Z,1.53
2018-06-28T22:04:56.356Z,3.33
2018-06-28T22:08:59.259Z,2.70
2018-06-28T22:13:02.150Z,3.97
2018-06-28T22:17:06.164Z,2.43
2018-06-28T22:21:09.005Z,3.23
2018-06-28T22:25:11.896Z,2.90
2018-06-28T22:29:14.665Z,3.83
2018-06-28T22:33:17.692Z,4.40
2018-06-28T22:37:20.503Z,3.23
2018-06-28T22:41:23.253Z,6.80
2018-06-28T22:45:26.009Z,4.73
2018-06-28T22:49:28.874Z,3.73
2018-06-28T22:53:31.695Z,1.67
2018-06-28T22:57:34.433Z,2.57
2018-06-28T23:01:37.334Z,2.57
2018-06-28T23:05:40.209Z,7.33
2018-06-28T23:09:43.136Z,4.07
2018-06-28T23:13:46.222Z,3.00
2018-06-28T23:17:49.160Z,2.33
2018-06-28T23:21:52.028Z,4.47
2018-06-28T23:25:54.947Z,1.80
2018-06-28T23:29:57.780Z,4.23
2018-06-28T23:34:00.669Z,2.73
2018-06-28T23:38:03.474Z,4.50
2018-06-28T23:42:06.434Z,1.73
2018-06-28T23:46:09.180Z,3.10
2018-06-28T23:50:12.027Z,5.73
2018-06-28T23:54:15.031Z,4.03
2018-06-28T23:58:17.736Z,3.10
